Time;durP1;ratioP1;P1;durP2;ratioP2;P2;SDS_P1;SDS_P2;PMS_P1;PMS_P2;Temp;Humidity;BMP_temperature;BMP_pressure;BME280_temperature;BME280_humidity;BME280_pressure;Samples;Min_cycle;Max_cycle;Signal;HPM_P1;HPM_P2
2023/12/12 00:01:03;;;;;;;4.82;2.35;;;6.70;99.90;;;;;;5065756;28;20763;-66
2023/12/12 00:03:30;;;;;;;5.88;2.47;;;6.60;99.90;;;;;;5063496;28;20205;-65
2023/12/12 00:05:57;;;;;;;4.80;1.73;;;6.60;99.90;;;;;;5062359;28;20216;-66
2023/12/12 00:08:25;;;;;;;4.88;2.72;;;6.60;99.90;;;;;;5064946;28;20221;-65
2023/12/12 00:10:52;;;;;;;4.60;2.30;;;6.70;99.90;;;;;;5062717;28;20229;-65
2023/12/12 00:13:18;;;;;;;2.75;1.80;;;6.70;99.90;;;;;;5059449;28;20288;-67
2023/12/12 00:15:45;;;;;;;5.43;2.10;;;6.70;99.90;;;;;;5057049;28;20197;-66
2023/12/12 00:18:12;;;;;;;7.95;2.13;;;6.70;99.90;;;;;;5054208;28;20226;-66
2023/12/12 00:20:39;;;;;;;9.98;2.60;;;6.70;99.90;;;;;;5053889;28;20233;-66
2023/12/12 00:23:06;;;;;;;3.80;2.08;;;6.70;99.90;;;;;;5053819;28;20182;-66
2023/12/12 00:25:34;;;;;;;5.68;2.33;;;6.70;99.90;;;;;;5053990;28;20703;-66
2023/12/12 00:28:00;;;;;;;6.20;2.28;;;6.70;99.90;;;;;;5054985;28;20198;-66
2023/12/12 00:30:27;;;;;;;9.70;2.33;;;6.70;99.90;;;;;;5058414;28;20217;-66
2023/12/12 00:32:54;;;;;;;6.00;2.50;;;6.70;99.90;;;;;;5058577;28;20203;-66
2023/12/12 00:35:21;;;;;;;4.47;2.20;;;6.70;99.90;;;;;;5058903;28;20208;-66
2023/12/12 00:37:47;;;;;;;4.20;2.00;;;6.70;99.90;;;;;;5058126;28;20221;-66
2023/12/12 00:40:14;;;;;;;6.88;2.33;;;6.70;99.90;;;;;;5058742;28;20572;-66
2023/12/12 00:42:42;;;;;;;5.20;2.60;;;6.70;99.90;;;;;;5060535;28;20202;-65
2023/12/12 00:45:10;;;;;;;11.77;2.13;;;6.70;99.90;;;;;;5061983;28;20202;-66
2023/12/12 00:47:37;;;;;;;8.05;2.03;;;6.70;99.90;;;;;;5062318;28;20285;-66
2023/12/12 00:50:04;;;;;;;7.00;2.33;;;6.70;99.90;;;;;;5060821;28;20574;-66
2023/12/12 00:52:30;;;;;;;5.30;2.30;;;6.70;99.90;;;;;;5062237;28;20208;-65
2023/12/12 00:54:58;;;;;;;2.47;2.13;;;6.70;99.90;;;;;;5060749;28;20552;-65
2023/12/12 00:57:25;;;;;;;7.65;2.20;;;6.70;99.90;;;;;;5062318;28;20271;-65
2023/12/12 00:59:54;;;;;;;3.63;2.22;;;6.70;99.90;;;;;;5061426;28;20259;-66
2023/12/12 01:02:23;;;;;;;7.75;2.90;;;6.70;99.90;;;;;;5063447;28;20224;-65
2023/12/12 01:04:50;;;;;;;5.57;2.20;;;6.70;99.90;;;;;;5067633;28;20208;-65
2023/12/12 01:07:17;;;;;;;2.53;2.22;;;6.70;99.90;;;;;;5067434;28;20205;-66
2023/12/12 01:09:44;;;;;;;4.55;1.75;;;6.70;99.90;;;;;;5062715;28;20709;-65
2023/12/12 01:12:11;;;;;;;9.60;2.40;;;6.80;99.90;;;;;;5061558;28;20221;-66
2023/12/12 01:14:38;;;;;;;6.15;2.70;;;6.80;99.90;;;;;;5059618;28;20201;-66
2023/12/12 01:17:06;;;;;;;6.30;2.30;;;6.70;99.90;;;;;;5058672;28;20212;-65
2023/12/12 01:19:33;;;;;;;8.68;2.60;;;6.80;99.90;;;;;;5058169;28;20202;-65
2023/12/12 01:22:00;;;;;;;4.68;2.08;;;6.80;99.90;;;;;;5056933;28;20237;-66
2023/12/12 01:24:26;;;;;;;3.15;2.10;;;6.70;99.90;;;;;;5056851;28;20206;-65
2023/12/12 01:26:53;;;;;;;5.15;2.20;;;6.70;99.90;;;;;;5056913;28;20208;-66
2023/12/12 01:29:20;;;;;;;5.30;2.30;;;6.80;99.90;;;;;;5058819;28;20202;-66
2023/12/12 01:31:47;;;;;;;4.43;2.05;;;6.80;99.90;;;;;;5059857;28;20218;-65
2023/12/12 01:34:15;;;;;;;3.13;2.38;;;6.80;99.90;;;;;;5060330;28;20206;-66
2023/12/12 01:36:42;;;;;;;4.78;2.85;;;6.80;99.90;;;;;;5060985;28;20205;-65
2023/12/12 01:39:09;;;;;;;5.10;2.20;;;6.80;99.90;;;;;;5058494;28;20227;-65
2023/12/12 01:41:35;;;;;;;6.07;2.50;;;6.80;99.90;;;;;;5059740;28;20222;-65
2023/12/12 01:44:02;;;;;;;5.80;2.60;;;6.80;99.90;;;;;;5061152;28;20198;-66
2023/12/12 01:46:31;;;;;;;8.30;2.47;;;6.80;99.90;;;;;;5059743;28;20666;-65
2023/12/12 01:48:58;;;;;;;5.05;1.98;;;6.80;99.90;;;;;;5062656;28;20194;-66
2023/12/12 01:51:27;;;;;;;2.88;1.80;;;6.80;99.90;;;;;;5058768;28;20222;-65
2023/12/12 01:53:54;;;;;;;7.55;2.20;;;6.80;99.90;;;;;;5056609;28;20201;-66
2023/12/12 01:56:21;;;;;;;3.70;2.10;;;6.80;99.90;;;;;;5055817;28;20577;-66
2023/12/12 01:58:52;;;;;;;3.45;2.10;;;6.80;99.90;;;;;;5056149;28;20222;-66
2023/12/12 02:01:21;;;;;;;6.45;2.42;;;6.80;99.90;;;;;;5055727;28;20221;-66
2023/12/12 02:03:49;;;;;;;6.47;2.67;;;6.80;99.90;;;;;;5055429;28;20224;-65
2023/12/12 02:06:21;;;;;;;4.15;2.35;;;6.80;99.90;;;;;;5055849;28;20208;-65
2023/12/12 02:08:50;;;;;;;5.68;2.20;;;6.80;99.90;;;;;;5055772;28;20269;-66
2023/12/12 02:11:17;;;;;;;6.00;2.28;;;6.80;99.90;;;;;;5057340;28;20297;-66
2023/12/12 02:13:44;;;;;;;7.13;2.30;;;6.80;99.90;;;;;;5057049;28;20598;-63
2023/12/12 02:16:12;;;;;;;3.80;2.00;;;6.80;99.90;;;;;;5058224;28;20206;-65
2023/12/12 02:18:38;;;;;;;9.32;2.67;;;6.80;99.90;;;;;;5061451;28;20667;-66
2023/12/12 02:21:05;;;;;;;3.38;1.80;;;6.80;99.90;;;;;;5056653;28;20236;-65
2023/12/12 02:23:34;;;;;;;3.33;2.00;;;6.80;99.90;;;;;;5056519;28;20263;-65
2023/12/12 02:26:02;;;;;;;4.43;2.90;;;6.80;99.90;;;;;;5056271;28;20198;-66
2023/12/12 02:28:29;;;;;;;5.43;2.45;;;6.80;99.90;;;;;;5056099;28;20193;-65
2023/12/12 02:30:56;;;;;;;9.75;2.85;;;6.80;99.90;;;;;;5061237;28;20221;-66
2023/12/12 02:33:23;;;;;;;7.40;2.17;;;6.80;99.90;;;;;;5057450;28;20208;-65
2023/12/12 02:35:49;;;;;;;6.43;2.10;;;6.80;99.90;;;;;;5055170;28;20212;-66
2023/12/12 02:38:16;;;;;;;4.32;1.80;;;6.80;99.90;;;;;;5055116;28;20225;-65
2023/12/12 02:40:44;;;;;;;6.90;2.30;;;6.70;99.90;;;;;;5055277;28;20217;-66
2023/12/12 02:43:11;;;;;;;2.85;2.03;;;6.70;99.90;;;;;;5054943;28;20210;-65
2023/12/12 02:45:38;;;;;;;7.75;2.30;;;6.70;99.90;;;;;;5055108;28;20208;-65
2023/12/12 02:48:05;;;;;;;6.38;2.25;;;6.60;99.90;;;;;;5054767;28;20205;-65
2023/12/12 02:50:32;;;;;;;4.70;2.25;;;6.50;99.90;;;;;;5054522;28;20332;-65
2023/12/12 02:52:58;;;;;;;4.72;2.75;;;6.40;99.90;;;;;;5054512;28;20201;-66
2023/12/12 02:55:25;;;;;;;5.05;2.15;;;6.40;99.90;;;;;;5054678;28;20206;-67
2023/12/12 02:57:53;;;;;;;5.35;2.60;;;6.30;99.90;;;;;;5055521;28;20221;-65
2023/12/12 03:00:20;;;;;;;7.47;2.42;;;6.20;99.90;;;;;;5055511;28;20202;-66
2023/12/12 03:02:47;;;;;;;2.50;1.90;;;6.10;99.90;;;;;;5056120;28;20212;-66
2023/12/12 03:05:14;;;;;;;3.17;2.20;;;6.00;99.90;;;;;;5055826;28;20206;-65
2023/12/12 03:07:40;;;;;;;4.45;2.22;;;5.90;99.90;;;;;;5055171;28;20205;-66
2023/12/12 03:10:08;;;;;;;3.67;2.00;;;5.80;99.90;;;;;;5054637;28;20202;-65
2023/12/12 03:12:35;;;;;;;5.57;2.78;;;5.80;99.90;;;;;;5054513;28;20198;-65
2023/12/12 03:15:03;;;;;;;4.20;3.03;;;5.70;99.90;;;;;;5054842;28;20202;-66
2023/12/12 03:17:30;;;;;;;5.43;1.90;;;5.60;99.90;;;;;;5055402;28;20202;-66
2023/12/12 03:19:57;;;;;;;9.88;2.22;;;5.50;99.90;;;;;;5054523;28;20201;-66
2023/12/12 03:22:23;;;;;;;5.50;2.72;;;5.50;99.90;;;;;;5053657;28;20226;-66
2023/12/12 03:24:50;;;;;;;4.65;2.70;;;5.40;99.90;;;;;;5054942;28;20208;-67
2023/12/12 03:27:17;;;;;;;6.45;2.75;;;5.30;99.90;;;;;;5054047;28;20201;-66
2023/12/12 03:29:44;;;;;;;8.35;2.97;;;5.20;99.90;;;;;;5054510;28;20225;-66
2023/12/12 03:32:12;;;;;;;4.55;2.80;;;5.20;99.90;;;;;;5054848;28;20218;-65
2023/12/12 03:34:38;;;;;;;4.65;2.70;;;5.20;99.90;;;;;;5054958;28;20312;-66
2023/12/12 03:37:05;;;;;;;4.45;2.85;;;5.10;99.90;;;;;;5054296;28;20205;-65
2023/12/12 03:39:32;;;;;;;3.90;2.90;;;5.10;99.90;;;;;;5054381;28;20218;-65
2023/12/12 03:41:59;;;;;;;5.47;2.97;;;5.00;99.90;;;;;;5054168;28;20218;-66
2023/12/12 03:44:26;;;;;;;4.60;2.90;;;5.00;99.90;;;;;;5054432;28;20210;-65
2023/12/12 03:46:52;;;;;;;7.30;2.67;;;4.90;99.90;;;;;;5054348;28;20212;-65
2023/12/12 03:49:20;;;;;;;3.58;2.80;;;4.90;99.90;;;;;;5054522;28;20198;-66
2023/12/12 03:51:47;;;;;;;6.45;2.95;;;4.80;99.90;;;;;;5053376;28;20222;-66
2023/12/12 03:54:14;;;;;;;3.67;2.78;;;4.80;99.90;;;;;;5053470;28;20204;-65
2023/12/12 03:56:41;;;;;;;6.15;2.95;;;4.80;99.90;;;;;;5053262;28;20205;-65
2023/12/12 03:59:08;;;;;;;6.85;3.35;;;4.80;99.90;;;;;;5053034;28;20213;-66
2023/12/12 04:01:34;;;;;;;5.53;2.85;;;4.80;99.90;;;;;;5052951;28;20728;-65
2023/12/12 04:04:01;;;;;;;8.35;3.90;;;4.80;99.90;;;;;;5052686;28;20675;-66
2023/12/12 04:06:29;;;;;;;5.28;2.78;;;4.80;99.90;;;;;;5053577;28;20331;-66
2023/12/12 04:08:56;;;;;;;7.03;3.15;;;4.80;99.90;;;;;;5053641;28;20198;-65
2023/12/12 04:12:44;;;;;;;4.60;3.13;;;4.70;99.90;;;;;;5093874;28;20553;-65
2023/12/12 04:15:11;;;;;;;5.03;3.60;;;4.80;99.90;;;;;;5097855;28;20574;-65
2023/12/12 04:17:38;;;;;;;14.25;3.55;;;4.70;99.90;;;;;;5097589;28;20204;-65
2023/12/12 04:20:06;;;;;;;10.20;3.72;;;4.70;99.90;;;;;;5093655;28;20200;-65
2023/12/12 04:22:33;;;;;;;9.18;3.70;;;4.70;99.90;;;;;;5094122;28;20204;-65
2023/12/12 04:24:59;;;;;;;6.65;3.25;;;4.70;99.90;;;;;;5096349;28;20207;-65
2023/12/12 04:27:26;;;;;;;7.63;3.30;;;4.70;99.90;;;;;;5092581;28;20204;-64
2023/12/12 04:29:54;;;;;;;7.88;3.40;;;4.70;99.90;;;;;;5093396;28;20211;-65
2023/12/12 04:32:21;;;;;;;5.22;3.78;;;4.70;99.90;;;;;;5093678;28;20283;-65
2023/12/12 04:34:48;;;;;;;7.25;3.58;;;4.60;99.90;;;;;;5093315;28;20200;-65
2023/12/12 04:37:15;;;;;;;9.68;3.55;;;4.60;99.90;;;;;;5095210;28;20211;-64
2023/12/12 04:39:42;;;;;;;5.28;4.05;;;4.60;99.90;;;;;;5093364;28;20232;-64
2023/12/12 04:42:09;;;;;;;6.47;4.00;;;4.50;99.90;;;;;;5090743;28;20224;-65
2023/12/12 04:44:36;;;;;;;9.15;4.03;;;4.50;99.90;;;;;;5091034;28;20205;-64
2023/12/12 04:47:05;;;;;;;11.48;4.68;;;4.50;99.90;;;;;;5090851;28;20204;-66
2023/12/12 04:49:32;;;;;;;9.68;3.85;;;4.50;99.90;;;;;;5093044;28;20215;-66
2023/12/12 04:51:58;;;;;;;8.02;4.45;;;4.40;99.90;;;;;;5096677;28;20592;-65
2023/12/12 04:54:25;;;;;;;11.25;4.15;;;4.40;99.90;;;;;;5098596;28;20564;-66
2023/12/12 04:56:52;;;;;;;5.38;3.38;;;4.40;99.90;;;;;;5099641;28;20208;-66
2023/12/12 04:59:19;;;;;;;6.97;4.03;;;4.40;99.90;;;;;;5099052;28;20207;-66
2023/12/12 05:01:46;;;;;;;7.30;3.97;;;4.40;99.90;;;;;;5099479;28;20227;-64
2023/12/12 05:04:14;;;;;;;13.23;5.55;;;4.40;99.90;;;;;;5099555;28;20291;-65
2023/12/12 05:06:41;;;;;;;14.25;4.20;;;4.40;99.90;;;;;;5100245;28;20260;-65
2023/12/12 05:09:08;;;;;;;6.53;4.50;;;4.40;99.90;;;;;;5103099;28;20621;-66
2023/12/12 05:11:36;;;;;;;23.02;6.40;;;4.40;99.90;;;;;;5100314;28;20238;-65
2023/12/12 05:14:04;;;;;;;10.43;4.75;;;4.40;99.90;;;;;;5102102;28;20231;-65
2023/12/12 05:16:31;;;;;;;6.75;3.70;;;4.40;99.90;;;;;;5099768;28;20322;-65
2023/12/12 05:18:58;;;;;;;16.30;4.80;;;4.50;99.90;;;;;;5096929;28;20616;-65
2023/12/12 05:21:26;;;;;;;11.15;5.32;;;4.50;99.90;;;;;;5095979;28;20224;-66
2023/12/12 05:23:53;;;;;;;8.27;4.53;;;4.50;99.90;;;;;;5080822;28;20200;-64
2023/12/12 05:26:20;;;;;;;11.10;5.55;;;4.50;99.90;;;;;;5079073;28;20197;-66
2023/12/12 05:28:47;;;;;;;6.40;4.55;;;4.40;99.90;;;;;;5078699;28;20207;-64
2023/12/12 05:31:14;;;;;;;10.20;5.32;;;4.40;99.90;;;;;;5081426;28;20217;-65
2023/12/12 05:33:41;;;;;;;8.57;3.97;;;4.30;99.90;;;;;;5081339;28;20205;-64
2023/12/12 05:36:09;;;;;;;8.20;4.72;;;4.30;99.90;;;;;;5082089;28;20243;-65
2023/12/12 05:38:37;;;;;;;12.48;4.90;;;4.20;99.90;;;;;;5080089;28;20790;-66
2023/12/12 05:41:04;;;;;;;6.72;5.47;;;4.20;99.90;;;;;;5080925;28;20218;-65
2023/12/12 05:43:31;;;;;;;14.20;5.07;;;4.10;99.90;;;;;;5085774;28;20311;-65
2023/12/12 05:45:58;;;;;;;6.57;4.30;;;4.10;99.90;;;;;;5084381;28;20671;-65
2023/12/12 05:48:24;;;;;;;10.10;5.05;;;4.10;99.90;;;;;;5084226;28;20212;-65
2023/12/12 05:50:51;;;;;;;8.07;5.05;;;4.10;99.90;;;;;;5083472;28;20232;-63
2023/12/12 05:53:18;;;;;;;9.65;5.00;;;4.10;99.90;;;;;;5080808;28;20201;-65
2023/12/12 05:55:46;;;;;;;10.60;6.05;;;4.00;99.90;;;;;;5082602;28;20292;-66
2023/12/12 05:58:13;;;;;;;9.80;5.78;;;4.00;99.90;;;;;;5081635;28;20235;-65
2023/12/12 06:00:40;;;;;;;12.60;6.05;;;4.00;99.90;;;;;;5077552;28;20225;-64
2023/12/12 06:03:08;;;;;;;6.72;5.30;;;4.00;99.90;;;;;;5079431;28;20227;-65
2023/12/12 06:05:34;;;;;;;9.95;5.88;;;4.00;99.90;;;;;;5080204;28;20197;-65
2023/12/12 06:08:01;;;;;;;7.97;5.13;;;4.00;99.90;;;;;;5080916;28;20284;-65
2023/12/12 06:10:28;;;;;;;10.25;6.15;;;4.00;99.90;;;;;;5079251;28;20221;-65
2023/12/12 06:12:56;;;;;;;15.48;6.03;;;4.10;99.90;;;;;;5081177;28;20663;-64
2023/12/12 06:15:23;;;;;;;8.82;6.22;;;4.10;99.90;;;;;;5079107;28;20224;-66
2023/12/12 06:17:50;;;;;;;15.73;6.60;;;4.20;99.90;;;;;;5075940;28;20228;-65
2023/12/12 06:20:17;;;;;;;15.20;6.07;;;4.30;99.90;;;;;;5075260;28;20580;-66
2023/12/12 06:22:43;;;;;;;11.80;5.85;;;4.30;99.90;;;;;;5075327;28;20204;-66
2023/12/12 06:25:10;;;;;;;13.40;6.55;;;4.40;99.90;;;;;;5075949;28;20205;-64
2023/12/12 06:27:37;;;;;;;13.68;6.25;;;4.40;99.90;;;;;;5076209;28;20205;-65
2023/12/12 06:30:07;;;;;;;9.15;5.50;;;4.40;99.90;;;;;;5079029;28;20211;-64
2023/12/12 06:32:34;;;;;;;7.10;5.65;;;4.40;99.90;;;;;;5078925;28;20212;-64
2023/12/12 06:35:03;;;;;;;10.18;5.95;;;4.50;99.90;;;;;;5077683;28;20227;-64
2023/12/12 06:37:30;;;;;;;19.17;6.75;;;4.50;99.90;;;;;;5079788;28;20521;-66
2023/12/12 06:39:58;;;;;;;13.32;7.15;;;4.60;99.90;;;;;;5080652;28;20205;-65
2023/12/12 06:42:25;;;;;;;13.15;6.80;;;4.60;99.90;;;;;;5081117;28;20247;-65
2023/12/12 06:44:51;;;;;;;10.00;6.72;;;4.60;99.90;;;;;;5084305;28;20258;-64
2023/12/12 06:47:20;;;;;;;17.02;6.05;;;4.60;99.90;;;;;;5086164;28;20207;-66
2023/12/12 06:49:46;;;;;;;11.45;6.65;;;4.60;99.90;;;;;;5085193;28;20631;-65
2023/12/12 06:52:13;;;;;;;12.88;6.88;;;4.70;99.90;;;;;;5084358;28;20225;-66
2023/12/12 06:54:40;;;;;;;15.13;7.30;;;4.70;99.90;;;;;;5087404;28;20268;-65
2023/12/12 06:57:07;;;;;;;14.40;8.02;;;4.70;99.90;;;;;;5084458;28;20650;-65
2023/12/12 06:59:34;;;;;;;12.10;7.22;;;4.80;99.90;;;;;;5082070;28;20225;-65
2023/12/12 07:02:01;;;;;;;22.58;8.70;;;4.90;99.90;;;;;;5080033;28;20217;-65
2023/12/12 07:04:29;;;;;;;11.32;7.60;;;4.90;99.90;;;;;;5077253;28;20196;-64
2023/12/12 07:06:56;;;;;;;10.70;7.32;;;5.00;99.90;;;;;;5076931;28;20205;-65
2023/12/12 07:09:23;;;;;;;11.98;7.82;;;5.10;99.90;;;;;;5075682;28;20215;-64
2023/12/12 07:11:50;;;;;;;15.85;8.20;;;5.20;99.90;;;;;;5076063;28;20229;-64
2023/12/12 07:14:17;;;;;;;11.20;7.95;;;5.20;99.90;;;;;;5074620;28;20201;-66
2023/12/12 07:16:43;;;;;;;15.02;7.85;;;5.20;99.90;;;;;;5074031;28;20291;-66
2023/12/12 07:19:10;;;;;;;12.60;7.93;;;5.30;99.90;;;;;;5074774;28;20205;-65
2023/12/12 07:21:42;;;;;;;16.02;9.10;;;5.30;99.90;;;;;;5076421;28;20297;-64
2023/12/12 07:24:10;;;;;;;14.00;8.05;;;5.40;99.90;;;;;;5079084;28;20617;-65
2023/12/12 07:26:37;;;;;;;12.07;7.05;;;5.40;99.90;;;;;;5076837;28;20331;-65
2023/12/12 07:29:04;;;;;;;16.95;6.80;;;5.40;99.90;;;;;;5077888;28;20205;-66
2023/12/12 07:31:30;;;;;;;13.27;7.90;;;5.50;99.90;;;;;;5074239;28;20228;-65
2023/12/12 07:33:57;;;;;;;13.43;7.43;;;5.50;99.90;;;;;;5074236;28;20205;-66
2023/12/12 07:36:24;;;;;;;18.02;7.47;;;5.50;99.90;;;;;;5074334;28;20208;-66
2023/12/12 07:38:53;;;;;;;13.73;8.15;;;5.60;99.90;;;;;;5076395;28;20200;-66
2023/12/12 07:41:20;;;;;;;12.57;8.32;;;5.60;99.90;;;;;;5076204;28;20217;-66
2023/12/12 07:43:47;;;;;;;12.15;6.60;;;5.70;99.90;;;;;;5075533;28;20209;-66
2023/12/12 07:46:14;;;;;;;10.60;7.40;;;5.70;99.90;;;;;;5074356;28;20197;-66
2023/12/12 07:48:40;;;;;;;15.57;7.20;;;5.80;99.90;;;;;;5074825;28;20570;-66
2023/12/12 07:51:07;;;;;;;11.73;8.25;;;5.80;99.90;;;;;;5075322;28;20229;-66
2023/12/12 07:53:34;;;;;;;14.98;7.43;;;5.80;99.90;;;;;;5075635;28;20312;-65
2023/12/12 07:56:02;;;;;;;10.50;7.13;;;5.90;99.90;;;;;;5075350;28;20212;-65
2023/12/12 07:58:29;;;;;;;11.32;6.93;;;5.90;99.90;;;;;;5076648;28;20203;-64
2023/12/12 08:00:56;;;;;;;14.95;7.80;;;6.00;99.90;;;;;;5078048;28;20235;-66
2023/12/12 08:03:23;;;;;;;15.48;8.63;;;6.00;99.90;;;;;;5078216;28;20224;-66
2023/12/12 08:05:50;;;;;;;14.98;7.88;;;6.00;99.90;;;;;;5076784;28;20200;-65
2023/12/12 08:08:19;;;;;;;11.80;7.00;;;6.10;99.90;;;;;;5078414;28;20208;-65
2023/12/12 08:10:46;;;;;;;13.93;7.28;;;6.10;99.90;;;;;;5077033;28;20233;-65
2023/12/12 08:13:14;;;;;;;11.75;7.13;;;6.10;99.90;;;;;;5076466;28;20202;-65
2023/12/12 08:15:40;;;;;;;13.00;6.90;;;6.20;99.90;;;;;;5077984;28;20571;-66
2023/12/12 08:18:09;;;;;;;15.60;7.55;;;6.20;99.90;;;;;;5082098;28;20704;-66
2023/12/12 08:20:36;;;;;;;12.25;8.23;;;6.30;99.90;;;;;;5082404;28;20636;-66
2023/12/12 08:23:03;;;;;;;10.15;7.00;;;6.30;99.90;;;;;;5083938;28;20200;-66
2023/12/12 08:25:30;;;;;;;11.75;7.85;;;6.40;99.90;;;;;;5086053;28;20283;-66
2023/12/12 08:27:57;;;;;;;10.65;7.65;;;6.40;99.90;;;;;;5082740;28;20197;-65
2023/12/12 08:30:25;;;;;;;13.75;8.20;;;6.40;99.90;;;;;;5074375;28;20589;-66
2023/12/12 08:32:52;;;;;;;15.02;8.95;;;6.50;99.90;;;;;;5075174;28;20217;-66
2023/12/12 08:35:20;;;;;;;13.10;8.25;;;6.50;99.90;;;;;;5075806;28;20306;-66
2023/12/12 08:37:47;;;;;;;9.57;7.45;;;6.60;99.90;;;;;;5077042;28;20228;-65
2023/12/12 08:40:14;;;;;;;16.38;7.55;;;6.60;99.90;;;;;;5076706;28;20223;-65
2023/12/12 08:42:41;;;;;;;14.95;7.65;;;6.60;99.90;;;;;;5077433;28;20577;-66
2023/12/12 08:45:09;;;;;;;13.43;7.80;;;6.70;99.90;;;;;;5074788;28;20571;-65
2023/12/12 08:47:37;;;;;;;11.38;7.13;;;6.70;99.90;;;;;;5076416;28;20291;-66
2023/12/12 08:50:04;;;;;;;10.57;7.10;;;6.80;99.90;;;;;;5076255;28;20197;-66
2023/12/12 08:52:32;;;;;;;12.07;7.70;;;6.80;99.90;;;;;;5075739;28;20304;-66
2023/12/12 08:54:59;;;;;;;12.63;8.30;;;6.90;99.90;;;;;;5076893;28;20201;-65
2023/12/12 08:57:26;;;;;;;15.80;9.02;;;6.90;99.90;;;;;;5076366;28;20207;-66
2023/12/12 08:59:52;;;;;;;12.40;8.55;;;6.90;99.90;;;;;;5079345;28;20709;-65
2023/12/12 09:02:21;;;;;;;12.63;7.68;;;7.00;99.90;;;;;;5078725;28;20591;-66
2023/12/12 09:04:49;;;;;;;10.75;7.57;;;7.00;99.90;;;;;;5079464;28;20201;-64
2023/12/12 09:07:15;;;;;;;11.35;7.57;;;7.10;99.90;;;;;;5080524;28;20203;-64
2023/12/12 09:09:42;;;;;;;11.40;7.80;;;7.10;99.90;;;;;;5084988;28;20202;-66
2023/12/12 09:12:09;;;;;;;10.95;8.20;;;7.10;99.90;;;;;;5081067;28;20224;-65
2023/12/12 09:14:36;;;;;;;11.45;8.60;;;7.10;99.90;;;;;;5082811;28;20262;-64
2023/12/12 09:17:03;;;;;;;11.18;7.45;;;7.10;99.90;;;;;;5083127;28;20213;-66
2023/12/12 09:19:30;;;;;;;12.27;8.57;;;7.10;99.90;;;;;;5083691;28;20292;-67
2023/12/12 09:21:58;;;;;;;10.63;7.55;;;7.20;99.90;;;;;;5083110;28;20224;-65
2023/12/12 09:24:24;;;;;;;12.35;9.27;;;7.20;99.90;;;;;;5083517;28;20203;-66
2023/12/12 09:26:51;;;;;;;11.75;8.20;;;7.20;99.90;;;;;;5080375;28;20689;-66
2023/12/12 09:29:18;;;;;;;13.10;8.98;;;7.30;99.90;;;;;;5080684;28;20212;-67
2023/12/12 09:31:45;;;;;;;13.75;8.40;;;7.30;99.90;;;;;;5081376;28;20703;-66
2023/12/12 09:34:12;;;;;;;10.65;8.45;;;7.30;99.90;;;;;;5081478;28;20702;-66
2023/12/12 09:36:39;;;;;;;13.60;7.90;;;7.30;99.90;;;;;;5080471;28;20201;-66
2023/12/12 09:39:10;;;;;;;16.88;8.70;;;7.30;99.90;;;;;;5082247;28;20205;-66
2023/12/12 09:41:37;;;;;;;12.15;9.63;;;7.30;99.90;;;;;;5084234;28;20221;-66
2023/12/12 09:44:04;;;;;;;10.27;8.82;;;7.40;99.90;;;;;;5082803;28;20196;-66
2023/12/12 09:46:32;;;;;;;14.10;9.82;;;7.40;99.90;;;;;;5083158;28;20296;-66
2023/12/12 09:48:59;;;;;;;16.67;11.07;;;7.40;99.90;;;;;;5084759;28;20228;-65
2023/12/12 09:51:27;;;;;;;14.10;10.45;;;7.50;99.90;;;;;;5084156;28;20679;-65
2023/12/12 09:53:55;;;;;;;11.98;9.68;;;7.50;99.90;;;;;;5084926;28;20267;-65
2023/12/12 09:56:24;;;;;;;13.82;10.15;;;7.60;99.90;;;;;;5082967;28;20666;-65
2023/12/12 09:58:51;;;;;;;13.57;10.52;;;7.70;99.90;;;;;;5083684;28;20282;-66
2023/12/12 10:01:18;;;;;;;14.38;9.82;;;7.80;99.90;;;;;;5085069;28;20225;-65
2023/12/12 10:03:45;;;;;;;14.75;10.45;;;7.90;99.90;;;;;;5083249;28;20292;-65
2023/12/12 10:06:13;;;;;;;12.98;9.70;;;7.90;99.90;;;;;;5083072;28;20205;-66
2023/12/12 10:08:41;;;;;;;18.20;11.60;;;8.00;99.90;;;;;;5082327;28;20209;-65
2023/12/12 10:11:10;;;;;;;16.17;11.68;;;8.00;99.90;;;;;;5078612;28;20358;-66
2023/12/12 10:13:54;;;;;;;12.95;10.40;;;8.00;99.90;;;;;;5080623;28;20221;-65
2023/12/12 10:16:21;;;;;;;14.68;10.68;;;8.00;99.90;;;;;;5079286;28;20196;-64
2023/12/12 10:18:50;;;;;;;18.85;11.43;;;8.20;99.90;;;;;;5080568;28;20308;-65
2023/12/12 10:21:18;;;;;;;17.65;12.75;;;8.20;99.90;;;;;;5081485;28;20252;-65
2023/12/12 10:23:45;;;;;;;14.60;10.90;;;8.40;99.90;;;;;;5081053;28;20224;-65
2023/12/12 10:26:13;;;;;;;13.80;11.25;;;8.40;99.90;;;;;;5077031;28;20250;-63
2023/12/12 10:28:39;;;;;;;15.95;11.38;;;8.50;99.90;;;;;;5077082;28;20205;-65
2023/12/12 10:31:08;;;;;;;15.50;11.90;;;8.60;99.90;;;;;;5076029;28;20221;-65
2023/12/12 10:33:35;;;;;;;20.00;12.03;;;8.70;99.90;;;;;;5077115;28;20947;-65
2023/12/12 10:36:03;;;;;;;19.73;13.73;;;8.70;99.90;;;;;;5077578;28;20936;-65
2023/12/12 10:38:30;;;;;;;17.90;11.27;;;8.80;99.90;;;;;;5078608;28;20449;-65
2023/12/12 10:41:10;;;;;;;20.98;13.95;;;8.90;99.90;;;;;;5079010;28;20459;-65
2023/12/12 10:43:40;;;;;;;18.57;12.97;;;9.00;99.90;;;;;;5077569;28;20207;-65
2023/12/12 10:46:10;;;;;;;19.50;12.48;;;9.10;99.90;;;;;;5076326;28;20450;-66
2023/12/12 10:48:43;;;;;;;17.80;11.93;;;9.20;99.90;;;;;;5076896;28;20193;-65
2023/12/12 10:51:11;;;;;;;15.90;12.20;;;9.30;99.90;;;;;;5077190;28;20467;-64
2023/12/12 10:53:38;;;;;;;17.33;13.40;;;9.40;99.90;;;;;;5076150;28;20574;-65
2023/12/12 10:56:07;;;;;;;17.43;12.73;;;9.40;99.90;;;;;;5077183;28;20442;-64
2023/12/12 10:58:36;;;;;;;19.30;12.67;;;9.50;99.90;;;;;;5078459;28;20937;-65
2023/12/12 11:01:03;;;;;;;16.73;11.47;;;9.60;99.90;;;;;;5081364;28;20550;-65
2023/12/12 11:03:32;;;;;;;16.40;12.00;;;9.60;99.90;;;;;;5082564;28;20445;-66
2023/12/12 11:05:59;;;;;;;16.23;11.80;;;9.70;99.90;;;;;;5082322;28;20470;-65
2023/12/12 11:08:28;;;;;;;15.33;10.97;;;9.70;99.90;;;;;;5081578;28;20439;-65
2023/12/12 11:10:55;;;;;;;18.27;11.50;;;9.70;99.90;;;;;;5081175;28;20475;-65
2023/12/12 11:13:25;;;;;;;16.67;10.97;;;9.70;99.90;;;;;;5079804;28;20467;-66
2023/12/12 11:15:53;;;;;;;15.57;11.00;;;9.80;99.90;;;;;;5076677;28;20455;-64
2023/12/12 11:18:21;;;;;;;15.70;11.93;;;9.70;99.90;;;;;;5076728;28;20444;-66
2023/12/12 11:20:49;;;;;;;19.10;12.87;;;9.70;99.90;;;;;;5075808;28;21028;-67
2023/12/12 11:23:52;;;;;;;13.37;11.57;;;9.70;99.90;;;;;;5075700;28;20435;-65
2023/12/12 11:26:21;;;;;;;19.30;12.23;;;9.60;99.90;;;;;;5076597;28;20902;-66
2023/12/12 11:28:49;;;;;;;15.73;11.97;;;9.60;99.90;;;;;;5075712;28;20945;-66
2023/12/12 11:31:22;;;;;;;15.80;10.20;;;9.50;99.90;;;;;;5075201;28;20520;-63
2023/12/12 11:34:09;;;;;;;15.73;10.70;;;9.40;99.90;;;;;;5076610;28;20521;-66
2023/12/12 11:36:54;;;;;;;16.87;12.43;;;9.40;99.90;;;;;;5076358;28;20428;-65
2023/12/12 11:39:26;;;;;;;20.15;12.00;;;9.30;99.90;;;;;;5076714;28;20447;-66
2023/12/12 11:41:53;;;;;;;17.07;11.67;;;9.30;99.90;;;;;;5077569;28;20224;-66
2023/12/12 11:44:21;;;;;;;18.17;10.93;;;9.30;99.90;;;;;;5076234;28;20435;-66
2023/12/12 11:46:48;;;;;;;22.40;11.17;;;9.30;99.90;;;;;;5076491;28;20506;-66
2023/12/12 11:49:19;;;;;;;13.00;10.03;;;9.40;99.90;;;;;;5076936;28;20466;-65
2023/12/12 11:51:49;;;;;;;14.37;10.60;;;9.40;99.90;;;;;;5075542;28;20972;-65
2023/12/12 11:54:22;;;;;;;17.50;11.87;;;9.40;99.90;;;;;;5077588;28;20578;-65
2023/12/12 11:56:54;;;;;;;16.60;10.47;;;9.40;99.90;;;;;;5076187;28;20443;-65
2023/12/12 11:59:22;;;;;;;16.97;10.80;;;9.40;99.90;;;;;;5077011;28;20890;-67
2023/12/12 12:01:49;;;;;;;17.30;11.53;;;9.40;99.90;;;;;;5077183;28;20528;-65
2023/12/12 12:04:16;;;;;;;20.70;11.40;;;9.40;99.90;;;;;;5076871;28;20824;-67
2023/12/12 12:06:43;;;;;;;17.25;11.68;;;9.30;99.90;;;;;;5077597;28;20450;-66
2023/12/12 12:09:11;;;;;;;13.90;9.90;;;9.30;99.90;;;;;;5076110;28;20670;-66
2023/12/12 12:11:40;;;;;;;10.97;7.97;;;9.40;99.90;;;;;;5077235;28;20570;-67
2023/12/12 12:14:07;;;;;;;14.20;8.47;;;9.40;99.90;;;;;;5077707;28;20485;-67
2023/12/12 12:16:35;;;;;;;16.50;9.10;;;9.40;99.90;;;;;;5080100;28;20449;-67
2023/12/12 12:19:27;;;;;;;15.97;8.33;;;9.50;99.90;;;;;;5079024;28;20475;-67
2023/12/12 12:21:53;;;;;;;10.77;8.63;;;9.50;99.90;;;;;;5080604;28;20459;-65
2023/12/12 12:24:20;;;;;;;15.47;7.83;;;9.50;99.90;;;;;;5078832;28;20438;-66
2023/12/12 12:26:48;;;;;;;8.97;7.40;;;9.50;99.90;;;;;;5078428;28;20435;-66
2023/12/12 12:29:15;;;;;;;14.97;7.87;;;9.40;99.90;;;;;;5077878;28;20450;-65
2023/12/12 12:31:42;;;;;;;16.20;8.00;;;9.40;99.90;;;;;;5076487;28;20479;-66
2023/12/12 12:34:17;;;;;;;15.47;8.40;;;9.30;99.90;;;;;;5080827;28;21035;-66
2023/12/12 12:36:46;;;;;;;13.20;7.43;;;9.30;99.90;;;;;;5084943;28;20508;-64
2023/12/12 12:39:13;;;;;;;13.33;7.93;;;9.20;99.90;;;;;;5084083;28;20447;-66
2023/12/12 12:41:43;;;;;;;10.80;7.70;;;9.20;99.90;;;;;;5085112;28;20465;-68
2023/12/12 12:44:11;;;;;;;12.77;7.40;;;9.10;99.90;;;;;;5080293;28;20443;-65
2023/12/12 12:46:38;;;;;;;14.60;6.80;;;9.10;99.90;;;;;;5079193;28;20435;-66
2023/12/12 12:49:05;;;;;;;13.10;7.33;;;9.10;99.90;;;;;;5079217;28;20830;-67
2023/12/12 12:51:32;;;;;;;35.03;24.07;;;9.10;99.90;;;;;;5078328;28;20463;-67
2023/12/12 12:53:59;;;;;;;47.77;29.33;;;9.10;99.90;;;;;;5084845;28;20489;-65